Time;durP1;ratioP1;P1;durP2;ratioP2;P2;SDS_P1;SDS_P2;PMS_P1;PMS_P2;Temp;Humidity;BMP_temperature;BMP_pressure;BME280_temperature;BME280_humidity;BME280_pressure;Samples;Min_cycle;Max_cycle;Signal;HPM_P1;HPM_P2
2023/01/06 01:45:50;;;;;;;;;0.00;0.00;;;;;10.56;100.00;101382.91;511073;26;46099;-88
2023/01/06 01:48:25;;;;;;;;;0.00;0.00;;;;;9.93;100.00;101289.06;4902450;28;45285;-90
2023/01/06 01:51:15;;;;;;;;;0.00;0.00;;;;;10.53;100.00;101382.94;4903225;28;45301;-91
2023/01/06 01:53:58;;;;;;;;;0.00;0.00;;;;;10.34;100.00;101345.16;4909204;28;47250;-89
2023/01/06 01:56:52;;;;;;;;;0.50;0.00;;;;;8.92;100.00;101114.53;4903782;28;45474;-91
2023/01/06 02:03:02;;;;;;;;;;;;;;;;;;;;;
2023/01/06 02:06:15;;;;;;;;;;;;;;;;;;;;;
2023/01/06 02:09:32;;;;;;;;;;;;;;;;;;;;;
2023/01/06 02:12:21;;;;;;;;;0.00;0.00;;;;;10.12;100.00;101332.06;4925809;28;68667;-90
2023/01/06 02:15:39;;;;;;;;;0.00;0.00;;;;;8.71;100.00;101095.31;4905474;28;45467;-90
2023/01/06 02:19:17;;;;;;;;;;;;;;;;;;;;;
2023/01/06 02:22:04;;;;;;;;;0.00;0.00;;;;;10.00;100.00;101309.25;4867583;28;72955;-90
2023/01/06 02:25:26;;;;;;;;;0.00;0.00;;;;;9.93;100.00;101291.69;4906088;28;45417;-91
2023/01/06 02:28:33;;;;;;;;;0.00;0.00;;;;;10.36;100.00;101375.13;4863911;29;45345;-91
2023/01/06 02:31:38;;;;;;;;;0.00;0.00;;;;;10.35;100.00;101384.78;4850608;29;47206;-91
2023/01/06 02:34:27;;;;;;;;;;;;;;;;;;;;;
2023/01/06 02:37:17;;;;;;;;;;;;;;;;;;;;;
2023/01/06 02:43:11;;;;;;;;;0.50;0.50;;;;;10.34;100.00;101401.56;4995500;23;45399;-90
2023/01/06 02:46:22;;;;;;;;;0.00;0.00;;;;;10.34;100.00;101372.47;4905354;28;45396;-89
2023/01/06 02:49:26;;;;;;;;;1.00;1.00;;;;;8.59;100.00;101065.47;4908333;28;45331;-90
2023/01/06 02:52:16;;;;;;;;;0.75;0.75;;;;;9.50;100.00;101224.16;4911794;28;44891;-90
2023/01/06 02:55:28;;;;;;;;;0.00;0.00;;;;;10.34;100.00;101363.66;4892298;29;47222;-90
2023/01/06 02:58:31;;;;;;;;;2.00;1.00;;;;;10.33;100.00;101352.22;4888985;29;45328;-90
2023/01/06 03:01:25;;;;;;;;;0.25;0.25;;;;;9.07;100.00;101156.66;4907006;28;45477;-90
2023/01/06 03:04:17;;;;;;;;;0.50;0.50;;;;;8.89;100.00;101098.75;4892943;29;45508;-89
2023/01/06 03:07:15;;;;;;;;;0.50;0.50;;;;;10.13;100.00;101299.50;4902805;28;45489;-89
2023/01/06 03:10:04;;;;;;;;;0.00;0.00;;;;;9.32;100.00;101166.22;4897679;29;45315;-90
2023/01/06 03:16:18;;;;;;;;;0.75;0.75;;;;;9.20;100.00;101149.56;4884948;29;44893;-91
2023/01/06 03:18:54;;;;;;;;;0.00;0.00;;;;;9.88;100.00;101267.06;4879452;29;46806;-91
2023/01/06 03:21:38;;;;;;;;;0.00;0.00;;;;;10.25;100.00;101330.25;4888274;29;45486;-91
2023/01/06 03:24:48;;;;;;;;;1.00;1.00;;;;;9.48;100.00;101209.22;4890385;29;45454;-91
2023/01/06 03:27:28;;;;;;;;;0.00;0.00;;;;;8.40;100.00;101014.63;4891205;29;45657;-91
2023/01/06 03:30:10;;;;;;;;;0.50;0.00;;;;;8.91;100.00;101125.09;4890606;29;46977;-91
2023/01/06 03:33:01;;;;;;;;;1.00;1.00;;;;;9.85;100.00;101269.72;4898535;29;45453;-88
2023/01/06 03:35:47;;;;;;;;;;;;;;;;;;;;;
2023/01/06 03:38:57;;;;;;;;;0.00;0.00;;;;;10.27;100.00;101331.09;4911358;28;68743;-91
2023/01/06 03:45:34;;;;;;;;;;;;;;;;;;;;;
2023/01/06 03:48:31;;;;;;;;;0.00;0.00;;;;;9.73;100.00;101231.97;4901325;28;68792;-91
2023/01/06 03:51:31;;;;;;;;;0.00;0.00;;;;;10.32;100.00;101329.28;4885760;28;45619;-90
2023/01/06 03:54:34;;;;;;;;;2.00;1.00;;;;;10.29;100.00;101326.66;4885996;29;45873;-90
2023/01/06 03:57:37;;;;;;;;;0.00;0.00;;;;;9.16;100.00;101134.66;4892368;29;45265;-90
2023/01/06 04:00:49;;;;;;;;;2.00;0.00;;;;;8.76;100.00;101078.59;4891190;29;45230;-89
2023/01/06 04:03:44;;;;;;;;;0.00;0.00;;;;;9.18;100.00;101137.28;4827783;29;45543;-90
2023/01/06 04:06:30;;;;;;;;;0.50;0.50;;;;;9.86;100.00;101219.53;4827045;29;46811;-89
2023/01/06 04:09:17;;;;;;;;;0.00;0.00;;;;;9.61;100.00;101187.16;4818151;29;45536;-90
2023/01/06 04:14:38;;;;;;;;;0.00;0.00;;;;;9.03;100.00;101090.75;4828665;29;45446;-89
2023/01/06 04:17:22;;;;;;;;;;;;;;;;;;;;;
2023/01/06 04:19:57;;;;;;;;;0.00;0.00;;;;;8.33;100.00;100977.72;4831718;29;71959;-90
2023/01/06 04:22:37;;;;;;;;;0.00;0.00;;;;;8.59;100.00;101020.69;4836096;29;45436;-90
2023/01/06 04:25:15;;;;;;;;;;;;;;;;;;;;;
2023/01/06 04:27:55;;;;;;;;;0.00;0.00;;;;;9.53;100.00;101187.19;4837432;28;73610;-90
2023/01/06 04:30:28;;;;;;;;;0.00;0.00;;;;;10.19;100.00;101315.28;4909305;28;45424;-91
2023/01/06 04:33:06;;;;;;;;;0.00;0.00;;;;;8.96;100.00;101111.03;4890101;29;45310;-91
2023/01/06 04:35:59;;;;;;;;;0.25;0.25;;;;;9.12;100.00;101126.75;4869725;29;45425;-91
2023/01/06 04:38:30;;;;;;;;;0.00;0.00;;;;;8.66;100.00;101033.81;4882610;29;46903;-91
2023/01/06 04:41:16;;;;;;;;;0.25;0.25;;;;;9.35;100.00;101155.63;4873156;29;44858;-91
2023/01/06 04:43:59;;;;;;;;;;;;;;;;;;;;;
2023/01/06 04:46:37;;;;;;;;;0.00;0.00;;;;;8.87;100.00;101082.06;4890086;29;70023;-91
2023/01/06 04:49:13;;;;;;;;;0.00;0.00;;;;;9.13;100.00;101097.75;4892258;29;45271;-91
2023/01/06 04:51:44;;;;;;;;;0.00;0.00;;;;;10.08;100.00;101262.53;4890775;29;44725;-91
2023/01/06 04:54:19;;;;;;;;;0.00;0.00;;;;;8.57;100.00;101018.06;4868141;29;45539;-91
2023/01/06 04:56:50;;;;;;;;;0.00;0.00;;;;;8.60;100.00;101012.78;4866122;29;45506;-91
2023/01/06 04:59:24;;;;;;;;;0.00;0.00;;;;;9.46;100.00;101158.22;4866870;29;46846;-91
2023/01/06 05:02:22;;;;;;;;;0.00;0.00;;;;;8.06;100.00;100936.63;4872496;29;45203;-91
2023/01/06 05:04:53;;;;;;;;;0.00;0.00;;;;;8.27;100.00;100964.59;4889912;29;45489;-91
2023/01/06 05:07:21;;;;;;;;;1.00;1.00;;;;;9.80;100.00;101200.25;4871714;29;45259;-91
2023/01/06 05:09:55;;;;;;;;;0.50;0.50;;;;;9.39;100.00;101129.22;4877940;29;47146;-92
2023/01/06 05:12:43;;;;;;;;;1.00;0.75;;;;;9.37;100.00;101138.94;4884538;29;45357;-91
2023/01/06 05:15:21;;;;;;;;;1.75;0.00;;;;;10.19;100.00;101254.53;4870832;29;45521;-90
2023/01/06 05:17:54;;;;;;;;;1.00;1.00;;;;;9.20;100.00;101093.28;4868804;29;45530;-91
2023/01/06 05:20:49;;;;;;;;;0.25;0.25;;;;;9.46;100.00;101129.19;4866383;29;47215;-92
2023/01/06 05:23:38;;;;;;;;;1.00;1.00;;;;;9.22;100.00;101104.72;4861772;29;45446;-91
2023/01/06 05:29:17;;;;;;;;;0.75;0.75;;;;;10.25;100.00;101287.97;4883332;29;45508;-91
2023/01/06 05:31:54;;;;;;;;;2.00;1.00;;;;;9.43;100.00;101141.53;4868628;29;47348;-91
2023/01/06 05:34:28;;;;;;;;;0.50;0.50;;;;;9.86;100.00;101216.03;4890352;29;45421;-91
2023/01/06 05:37:06;;;;;;;;;0.00;0.00;;;;;10.10;100.00;101258.13;4906720;28;45354;-91
2023/01/06 05:39:38;;;;;;;;;0.00;0.00;;;;;8.94;100.00;101075.84;4910649;29;45251;-94
2023/01/06 05:42:28;;;;;;;;;0.00;0.00;;;;;10.33;100.00;101299.38;4906988;28;45648;-94
2023/01/06 05:45:12;;;;;;;;;0.75;0.75;;;;;8.61;100.00;101000.47;4895071;29;45464;-95
2023/01/06 05:47:48;;;;;;;;;0.00;0.00;;;;;10.36;100.00;101291.44;4897700;29;44691;-94
2023/01/06 05:50:34;;;;;;;;;0.00;0.00;;;;;10.35;100.00;101316.09;4904820;29;45749;-95
2023/01/06 05:59:33;;;;;;;;;1.00;1.00;;;;;9.25;100.00;101112.63;4927116;28;44708;-93
2023/01/06 06:05:53;;;;;;;;;0.00;0.00;;;;;9.05;100.00;101074.06;4911124;29;45331;-96
2023/01/06 06:12:22;;;;;;;;;0.00;0.00;;;;;9.70;100.00;101184.47;4907697;29;45378;-93
2023/01/06 06:21:37;;;;;;;;;;;;;;;;;;;;;
2023/01/06 06:24:43;;;;;;;;;0.50;0.50;;;;;10.43;100.00;101330.13;4913333;29;68780;-93
2023/01/06 06:27:37;;;;;;;;;0.00;0.00;;;;;9.67;100.00;101189.78;4878246;29;45528;-90
2023/01/06 06:30:37;;;;;;;;;0.25;0.25;;;;;9.25;100.00;101117.91;4907759;28;46832;-91
2023/01/06 06:33:32;;;;;;;;;0.00;0.00;;;;;8.67;100.00;101000.44;4889786;29;45589;-91
2023/01/06 06:39:40;;;;;;;;;1.00;1.00;;;;;10.48;100.00;101314.25;4899592;28;45256;-91
2023/01/06 07:52:45;;;;;;;;;2.00;2.00;;;;;10.59;100.00;101332.66;1565172;23;46015;-88
2023/01/06 07:55:29;;;;;;;;;0.75;0.75;;;;;8.90;100.00;101039.88;4875369;29;45340;-94
2023/01/06 07:58:18;;;;;;;;;;;;;;;;;;;;;
2023/01/06 08:00:53;;;;;;;;;1.75;1.75;;;;;10.62;100.00;101346.72;4902075;28;69445;-92
2023/01/06 08:03:51;;;;;;;;;;;;;;;;;;;;;
2023/01/06 08:06:34;;;;;;;;;1.00;1.00;;;;;10.52;100.00;101321.22;4872851;29;72010;-95
2023/01/06 08:09:26;;;;;;;;;1.25;1.25;;;;;10.31;100.00;101295.84;4891202;29;45282;-94
2023/01/06 08:15:34;;;;;;;;;1.75;1.75;;;;;10.67;100.00;101328.16;4885126;29;45615;-92
2023/01/06 08:18:00;;;;;;;;;1.00;1.00;;;;;8.98;100.00;101045.97;4869477;29;45248;-91
2023/01/06 08:20:25;;;;;;;;;4.75;3.00;;;;;9.62;100.00;101165.16;4870894;29;45257;-92
2023/01/06 08:23:14;;;;;;;;;3.00;3.00;;;;;9.62;100.00;101148.44;4881002;29;45506;-95
2023/01/06 08:25:39;;;;;;;;;2.00;2.00;;;;;9.89;100.00;101210.75;4887493;28;46695;-93
2023/01/06 08:28:05;;;;;;;;;5.00;3.50;;;;;9.66;100.00;101166.88;4880835;29;45297;-94
2023/01/06 08:30:31;;;;;;;;;3.00;2.00;;;;;9.36;100.00;101112.56;4874984;29;45349;-94
2023/01/06 08:32:58;;;;;;;;;4.00;2.00;;;;;10.18;100.00;101265.13;4879666;29;44930;-93
2023/01/06 08:35:24;;;;;;;;;3.00;2.50;;;;;10.42;100.00;101286.09;4867494;29;46607;-94
2023/01/06 08:37:50;;;;;;;;;1.50;1.50;;;;;9.79;100.00;101178.22;4894868;29;45438;-94
2023/01/06 08:40:15;;;;;;;;;3.00;2.00;;;;;9.83;100.00;101206.38;4859282;29;44711;-95
2023/01/06 08:42:41;;;;;;;;;1.25;1.25;;;;;10.44;100.00;101299.28;4890183;29;45653;-95
2023/01/06 08:45:07;;;;;;;;;4.00;3.00;;;;;10.79;100.00;101356.28;4871668;29;45719;-94
2023/01/06 08:47:33;;;;;;;;;3.25;2.00;;;;;9.40;100.00;101115.16;4857550;29;45271;-94
2023/01/06 08:49:58;;;;;;;;;1.75;1.25;;;;;9.43;100.00;101112.50;4881164;29;45458;-94
2023/01/06 08:52:24;;;;;;;;;2.25;2.25;;;;;10.61;100.00;101312.34;4881576;29;44862;-93
2023/01/06 08:54:52;;;;;;;;;2.00;2.00;;;;;9.16;100.00;101070.47;4881367;29;46557;-92
2023/01/06 08:57:17;;;;;;;;;2.75;2.25;;;;;9.88;100.00;101174.66;4876336;29;45143;-93
2023/01/06 08:59:43;;;;;;;;;3.50;3.00;;;;;9.45;100.00;101088.75;4870169;29;45324;-94
2023/01/06 09:02:10;;;;;;;;;2.00;2.00;;;;;9.17;100.00;101065.19;4876223;29;45259;-93
2023/01/06 09:04:35;;;;;;;;;2.50;1.50;;;;;9.37;100.00;101107.25;4876283;29;47624;-92
2023/01/06 09:07:01;;;;;;;;;6.00;4.00;;;;;10.94;100.00;101373.78;4874418;29;45303;-93
2023/01/06 09:09:26;;;;;;;;;3.00;3.00;;;;;10.56;100.00;101301.81;4855224;29;45282;-94
2023/01/06 09:11:52;;;;;;;;;3.00;3.00;;;;;10.35;100.00;101250.03;4887004;29;45290;-95
2023/01/06 09:14:19;;;;;;;;;3.00;3.00;;;;;10.69;100.00;101331.69;4879702;29;48688;-94
2023/01/06 09:16:47;;;;;;;;;1.25;1.25;;;;;10.31;100.00;101257.06;4894933;29;44927;-92
2023/01/06 09:19:15;;;;;;;;;5.75;3.75;;;;;9.78;100.00;101169.44;4883312;29;45409;-94
2023/01/06 09:21:41;;;;;;;;;4.00;3.00;;;;;9.30;100.00;101071.25;4879706;29;44974;-92
2023/01/06 09:24:12;;;;;;;;;2.00;2.00;;;;;11.00;100.00;101371.09;4876415;29;45544;-95
2023/01/06 09:26:38;;;;;;;;;2.00;2.00;;;;;10.56;100.00;101295.66;4875408;29;45335;-93
2023/01/06 09:29:03;;;;;;;;;3.00;3.00;;;;;10.08;100.00;101222.91;4872338;29;45342;-93
2023/01/06 09:31:29;;;;;;;;;2.75;2.75;;;;;9.60;100.00;101119.44;4874167;29;45194;-94
2023/01/06 09:33:56;;;;;;;;;3.00;3.00;;;;;10.74;100.00;101315.78;4856568;29;46592;-94
2023/01/06 09:36:21;;;;;;;;;2.00;2.00;;;;;11.14;100.00;101370.94;4856096;29;45311;-94
2023/01/06 09:38:50;;;;;;;;;3.00;2.00;;;;;11.15;100.00;101383.28;4857653;29;45470;-92
2023/01/06 09:41:49;;;;;;;;;2.00;2.00;;;;;9.30;100.00;101059.84;4850937;29;45344;-90
2023/01/06 09:44:49;;;;;;;;;4.75;4.75;;;;;10.22;100.00;101214.88;4846017;29;47663;-90
2023/01/06 09:47:21;;;;;;;;;3.75;3.75;;;;;10.39;100.00;101262.31;4861950;29;45486;-90
2023/01/06 09:49:56;;;;;;;;;3.75;3.00;;;;;10.25;100.00;101229.84;4862392;29;45487;-90
2023/01/06 09:52:48;;;;;;;;;3.00;3.00;;;;;9.91;100.00;101161.41;4863195;29;45350;-90
2023/01/06 09:55:23;;;;;;;;;3.00;3.00;;;;;10.29;100.00;101224.50;4855127;29;47008;-94
2023/01/06 09:57:59;;;;;;;;;3.00;3.00;;;;;9.62;100.00;101141.41;4858376;29;45323;-94
2023/01/06 10:00:41;;;;;;;;;4.25;4.25;;;;;10.10;100.00;101207.94;4859722;29;45275;-94
2023/01/06 10:03:24;;;;;;;;;3.00;3.00;;;;;9.72;100.00;101134.31;4865903;29;44760;-94
2023/01/06 10:06:04;;;;;;;;;4.00;4.00;;;;;9.76;100.00;101154.47;4857627;29;47327;-93
2023/01/06 10:08:59;;;;;;;;;4.00;4.00;;;;;10.77;100.00;101313.97;4853909;29;45311;-93
2023/01/06 10:11:49;;;;;;;;;4.00;3.00;;;;;9.30;100.00;101065.09;4855294;29;45269;-94
2023/01/06 10:14:52;;;;;;;;;4.50;3.50;;;;;11.23;100.00;101385.88;4849225;29;45391;-93
2023/01/06 10:17:46;;;;;;;;;4.00;4.00;;;;;11.24;100.00;101390.28;4851328;29;48322;-94
2023/01/06 10:20:27;;;;;;;;;5.00;5.00;;;;;10.91;100.00;101348.22;4849800;29;45287;-91
2023/01/06 10:23:06;;;;;;;;;3.00;3.00;;;;;11.24;100.00;101387.63;4851478;29;45457;-93
2023/01/06 10:25:34;;;;;;;;;3.00;3.00;;;;;9.21;100.00;101053.72;4859644;29;45661;-95
2023/01/06 10:28:31;;;;;;;;;4.00;4.00;;;;;11.27;100.00;101395.53;4878056;29;45865;-94
2023/01/06 10:31:07;;;;;;;;;2.00;2.00;;;;;10.51;100.00;101290.44;4859394;29;45814;-94
2023/01/06 10:33:39;;;;;;;;;4.25;3.25;;;;;11.28;100.00;101397.28;4858926;29;45441;-94
2023/01/06 10:36:12;;;;;;;;;6.25;4.00;;;;;10.04;100.00;101183.34;4862893;29;45436;-93
2023/01/06 10:38:45;;;;;;;;;3.00;3.00;;;;;9.65;100.00;101117.63;4853199;29;47482;-93
2023/01/06 10:41:21;;;;;;;;;7.25;4.25;;;;;10.61;100.00;101276.25;4848566;29;45336;-89
2023/01/06 10:43:46;;;;;;;;;4.75;3.00;;;;;9.65;100.00;101096.50;4845382;29;45362;-89
2023/01/06 10:46:13;;;;;;;;;4.00;3.00;;;;;9.81;100.00;101143.88;4867558;29;45294;-89
2023/01/06 10:48:39;;;;;;;;;2.50;2.50;;;;;10.76;100.00;101287.56;4854876;29;45544;-86
2023/01/06 10:51:26;;;;;;;;;3.00;3.00;;;;;10.64;100.00;101254.16;4839612;29;45414;-86
2023/01/06 10:53:56;;;;;;;;;4.00;3.25;;;;;10.73;100.00;101275.22;4851945;29;45356;-85
2023/01/06 10:56:24;;;;;;;;;4.00;4.00;;;;;11.39;100.00;101392.75;4851987;29;45434;-86
2023/01/06 10:58:56;;;;;;;;;2.00;2.00;;;;;11.43;100.00;101372.41;4845051;29;47313;-86
2023/01/06 11:01:24;;;;;;;;;3.00;3.00;;;;;10.62;100.00;101225.09;4856829;29;45337;-87
2023/01/06 11:04:06;;;;;;;;;4.00;4.00;;;;;11.28;100.00;101326.72;4851849;29;45454;-88
2023/01/06 11:06:38;;;;;;;;;5.75;5.00;;;;;9.88;100.00;101080.47;4855375;29;45244;-93
2023/01/06 11:09:46;;;;;;;;;5.50;3.50;;;;;10.00;100.00;101094.47;4841124;29;47090;-93
2023/01/06 11:12:27;;;;;;;;;3.00;3.00;;;;;9.76;100.00;101044.50;4820365;29;45363;-93
2023/01/06 11:15:18;;;;;;;;;3.00;3.00;;;;;11.27;100.00;101308.22;4836772;29;45425;-93
2023/01/06 11:17:45;;;;;;;;;5.00;5.00;;;;;11.73;100.00;101360.59;4847988;29;45608;-93
2023/01/06 11:20:17;;;;;;;;;4.00;4.00;;;;;11.79;100.00;101349.94;4850524;29;47947;-93
2023/01/06 11:22:43;;;;;;;;;4.25;4.00;;;;;11.45;100.00;101291.22;4834781;29;45215;-92
2023/01/06 11:25:21;;;;;;;;;3.25;3.25;;;;;11.90;100.00;101337.44;4855766;29;45461;-93
2023/01/06 11:28:27;;;;;;;;;4.50;4.50;;;;;11.95;100.00;101334.75;4846130;29;45381;-95
2023/01/06 11:30:57;;;;;;;;;2.75;2.75;;;;;11.33;100.00;101213.72;4864082;29;47110;-90
2023/01/06 11:33:24;;;;;;;;;3.25;3.25;;;;;10.20;100.00;101038.78;4857860;29;45263;-92
2023/01/06 11:36:36;;;;;;;;;3.75;3.75;;;;;11.25;100.00;101204.13;4852827;29;45425;-94
2023/01/06 11:39:20;;;;;;;;;4.25;4.00;;;;;12.04;100.00;101347.88;4853315;29;45235;-91
2023/01/06 11:42:44;;;;;;;;;3.25;3.25;;;;;12.04;100.00;101331.06;4849352;29;46901;-92
2023/01/06 11:48:56;;;;;;;;;4.25;4.25;;;;;12.06;100.00;101321.34;4875203;29;45418;-91
2023/01/06 11:55:07;;;;;;;;;7.25;5.25;;;;;12.09;100.00;101306.28;4868300;29;45809;-91
2023/01/06 11:58:26;;;;;;;;;6.00;4.75;;;;;12.16;100.00;101293.84;4867220;29;45351;-91
2023/01/06 12:04:52;;;;;;;;;4.75;4.50;;;;;12.74;100.00;101278.72;4853039;29;45199;-89
2023/01/06 12:07:50;;;;;;;;;4.00;4.00;;;;;11.76;100.00;101063.94;4839172;29;46608;-92
2023/01/06 12:13:48;;;;;;;;;3.00;2.25;;;;;12.35;100.00;101114.16;4848120;29;45561;-91
2023/01/06 12:16:45;;;;;;;;;4.25;3.75;;;;;12.70;100.00;101175.38;4849564;29;45621;-93
2023/01/06 12:20:10;;;;;;;;;6.00;3.25;;;;;12.93;100.00;101222.66;4830042;29;47949;-93
2023/01/06 12:23:01;;;;;;;;;3.00;3.00;;;;;12.57;100.00;101191.53;4831917;29;45501;-91
2023/01/06 12:25:44;;;;;;;;;3.25;3.25;;;;;11.53;100.00;100998.16;4835185;29;45325;-91
2023/01/06 12:28:30;;;;;;;;;3.75;3.00;;;;;12.30;100.00;101147.84;4839647;29;45515;-93
2023/01/06 12:34:59;;;;;;;;;3.75;3.50;;;;;12.90;100.00;101250.13;4849849;29;45506;-93
2023/01/06 12:37:53;;;;;;;;;4.75;4.50;;;;;12.51;100.00;101191.63;4856208;29;44801;-92
2023/01/06 12:41:09;;;;;;;;;4.00;3.25;;;;;12.87;100.00;101263.44;4851480;29;45713;-92
2023/01/06 12:43:44;;;;;;;;;7.00;5.00;;;;;11.35;100.00;101023.16;4829577;29;46169;-92
2023/01/06 12:46:16;;;;;;;;;4.75;4.75;;;;;12.43;100.00;101201.50;4829667;29;45573;-90
2023/01/06 12:49:07;;;;;;;;;3.25;3.00;;;;;12.79;100.00;101234.41;4828787;29;45399;-90
2023/01/06 12:51:43;;;;;;;;;3.00;3.00;;;;;12.40;100.00;101169.72;4834137;29;45605;-91
2023/01/06 12:58:08;;;;;;;;;4.00;4.00;;;;;12.69;100.00;101221.34;4851471;29;45489;-92
2023/01/06 13:01:01;;;;;;;;;5.75;5.75;;;;;11.27;100.00;101001.25;4729093;29;45588;-92
2023/01/06 13:04:00;;;;;;;;;5.25;4.75;;;;;12.15;100.00;101146.31;4743051;30;45455;-93
2023/01/06 13:06:55;;;;;;;;;3.00;3.00;;;;;12.19;100.00;101150.69;4738344;29;46241;-92
2023/01/06 13:09:38;;;;;;;;;2.50;2.50;;;;;11.91;100.00;101089.31;4747860;29;45403;-93
2023/01/06 13:12:38;;;;;;;;;3.00;2.00;;;;;12.72;100.00;101218.66;4765679;29;45460;-93
2023/01/06 13:15:16;;;;;;;;;6.00;5.00;;;;;12.32;100.00;101161.06;4742540;29;45354;-92
2023/01/06 13:18:24;;;;;;;;;5.75;5.75;;;;;11.66;100.00;101059.69;4758493;29;47806;-92
2023/01/06 13:21:08;;;;;;;;;4.00;3.00;;;;;12.69;100.00;101221.34;4765056;29;45406;-92
2023/01/06 13:24:15;;;;;;;;;3.00;3.00;;;;;11.95;100.00;101099.00;4768919;29;44833;-93
2023/01/06 13:27:02;;;;;;;;;5.75;5.75;;;;;12.00;100.00;101101.56;4757150;29;45275;-93
2023/01/06 13:30:18;;;;;;;;;2.75;2.75;;;;;11.56;100.00;101041.31;4764004;29;47752;-92
2023/01/06 13:33:26;;;;;;;;;2.75;2.75;;;;;12.70;100.00;101210.72;4764461;29;45460;-92
2023/01/06 13:36:25;;;;;;;;;5.50;5.25;;;;;11.95;100.00;101096.34;4782432;29;45573;-92
2023/01/06 13:39:01;;;;;;;;;5.00;4.00;;;;;12.32;100.00;101158.41;4798712;29;44990;-92
2023/01/06 13:42:12;;;;;;;;;3.50;3.50;;;;;12.79;100.00;101233.56;4794354;29;47072;-91
2023/01/06 13:44:48;;;;;;;;;4.50;3.50;;;;;12.80;100.00;101237.97;4797449;29;44756;-91
2023/01/06 13:47:18;;;;;;;;;4.00;3.00;;;;;12.83;100.00;101224.63;4779060;29;45514;-94
2023/01/06 13:49:47;;;;;;;;;5.25;5.25;;;;;12.07;100.00;101085.53;4771107;29;45371;-93
2023/01/06 13:52:23;;;;;;;;;4.00;3.25;;;;;11.50;100.00;100983.19;4774291;29;46802;-92
2023/01/06 13:55:24;;;;;;;;;5.00;5.00;;;;;11.69;100.00;100994.34;4793714;29;45388;-92
2023/01/06 13:57:55;;;;;;;;;4.00;4.00;;;;;11.94;100.00;101038.09;4762120;29;45345;-93
2023/01/06 14:00:25;;;;;;;;;5.00;4.00;;;;;11.63;100.00;100996.22;4772807;29;45272;-92
2023/01/06 14:02:51;;;;;;;;;3.00;3.00;;;;;12.97;100.00;101198.69;4774654;29;45446;-93
2023/01/06 14:05:42;;;;;;;;;3.50;3.50;;;;;11.11;100.00;100900.06;4778071;29;46183;-91
2023/01/06 14:08:22;;;;;;;;;2.00;2.00;;;;;11.90;100.00;101023.97;4779891;29;45387;-92
2023/01/06 14:11:01;;;;;;;;;2.00;2.00;;;;;11.78;100.00;101008.31;4769397;29;45339;-92
2023/01/06 14:13:42;;;;;;;;;3.00;3.00;;;;;12.96;100.00;101199.59;4778891;29;47299;-92
2023/01/06 14:16:13;;;;;;;;;3.75;3.25;;;;;12.58;100.00;101150.81;4796470;29;45490;-93
2023/01/06 14:18:44;;;;;;;;;4.00;3.50;;;;;12.14;100.00;101075.66;4782296;29;45271;-91
2023/01/06 14:21:15;;;;;;;;;2.00;2.00;;;;;12.50;100.00;101126.25;4795384;29;45623;-91
2023/01/06 14:24:04;;;;;;;;;3.00;3.00;;;;;11.85;100.00;101020.56;4795186;29;45615;-93
2023/01/06 14:27:19;;;;;;;;;1.50;1.50;;;;;12.93;100.00;101182.88;4784039;29;45300;-92
2023/01/06 14:30:02;;;;;;;;;2.00;2.00;;;;;11.83;100.00;101012.63;4792283;29;45342;-94
2023/01/06 14:32:57;;;;;;;;;7.50;3.00;;;;;12.57;100.00;101133.19;4779123;29;45334;-93
2023/01/06 14:35:43;;;;;;;;;3.00;3.00;;;;;12.00;100.00;101025.59;4825338;29;47174;-93
2023/01/06 14:38:59;;;;;;;;;3.00;3.00;;;;;11.95;100.00;101016.88;4838509;29;45435;-91
2023/01/06 14:41:31;;;;;;;;;2.50;2.50;;;;;12.75;100.00;101131.06;4836543;29;45344;-92
2023/01/06 14:44:10;;;;;;;;;2.25;2.25;;;;;12.60;100.00;101108.38;4834413;29;45331;-93
2023/01/06 14:47:49;;;;;;;;;3.00;3.00;;;;;13.23;100.00;101207.91;4834334;29;45334;-93
2023/01/06 14:51:02;;;;;;;;;2.75;2.00;;;;;11.79;100.00;100931.47;4841948;29;45389;-91
2023/01/06 14:53:45;;;;;;;;;3.75;2.75;;;;;12.26;100.00;101018.91;4829336;29;44891;-92
2023/01/06 15:00:22;;;;;;;;;2.25;2.25;;;;;13.29;100.00;101196.28;4857037;29;44972;-91
2023/01/06 15:03:06;;;;;;;;;3.00;1.75;;;;;12.64;100.00;101082.69;4835967;29;45495;-92
2023/01/06 15:05:41;;;;;;;;;2.00;2.00;;;;;12.01;100.00;100984.97;4849918;29;45452;-92
2023/01/06 15:08:16;;;;;;;;;4.25;3.00;;;;;13.24;100.00;101193.75;4836449;29;45576;-92
2023/01/06 15:11:00;;;;;;;;;1.50;1.50;;;;;11.34;100.00;100883.78;4850886;29;46208;-91
2023/01/06 15:13:37;;;;;;;;;2.00;2.00;;;;;12.93;100.00;101151.03;4843323;29;45506;-91
2023/01/06 15:16:50;;;;;;;;;2.75;2.75;;;;;12.38;100.00;101047.81;4845771;29;45372;-91
2023/01/06 15:19:17;;;;;;;;;2.00;2.00;;;;;13.14;100.00;101193.03;4848398;29;45774;-89
2023/01/06 15:21:49;;;;;;;;;2.00;2.00;;;;;12.35;100.00;101068.22;4846129;29;47723;-89
2023/01/06 15:24:38;;;;;;;;;2.00;2.00;;;;;13.18;100.00;101191.22;4833877;29;45446;-90
2023/01/06 15:27:14;;;;;;;;;3.00;3.00;;;;;13.16;100.00;101195.66;4835933;29;45530;-90
2023/01/06 15:29:57;;;;;;;;;1.00;1.00;;;;;11.86;100.00;100990.53;4832666;29;45599;-89
2023/01/06 15:32:43;;;;;;;;;2.25;2.25;;;;;12.57;100.00;101104.03;4831514;29;46902;-92
2023/01/06 15:35:15;;;;;;;;;2.00;2.00;;;;;13.09;100.00;101180.78;4846489;29;45396;-91
2023/01/06 15:37:45;;;;;;;;;1.00;1.00;;;;;13.08;100.00;101181.69;4835000;29;45619;-90
2023/01/06 15:40:27;;;;;;;;;1.75;1.75;;;;;11.77;100.00;100973.03;4820024;29;45640;-89
2023/01/06 15:43:00;;;;;;;;;1.50;1.00;;;;;11.15;100.00;100859.44;4848088;29;46654;-90
2023/01/06 15:45:36;;;;;;;;;3.00;3.00;;;;;11.32;100.00;100907.63;4830494;29;45474;-91
2023/01/06 15:48:17;;;;;;;;;1.00;1.00;;;;;12.33;100.00;101085.91;4832609;29;45294;-90
2023/01/06 15:50:42;;;;;;;;;1.25;1.25;;;;;11.89;100.00;101022.25;4835329;29;45288;-89
2023/01/06 15:53:23;;;;;;;;;2.75;2.00;;;;;12.19;100.00;101062.34;4838858;29;46675;-89
2023/01/06 15:55:55;;;;;;;;;2.00;2.00;;;;;11.19;100.00;100914.94;4859514;29;45414;-90
2023/01/06 15:58:42;;;;;;;;;2.00;2.00;;;;;11.51;100.00;100978.78;4834967;29;45416;-90
2023/01/06 16:01:16;;;;;;;;;2.50;2.50;;;;;11.67;100.00;101027.03;4833159;29;45335;-91
2023/01/06 16:07:38;;;;;;;;;1.25;1.25;;;;;12.64;100.00;101180.81;4812860;29;45469;-90
2023/01/06 16:10:32;;;;;;;;;3.00;3.00;;;;;12.58;100.00;101177.34;4811646;29;45612;-90
2023/01/06 16:13:24;;;;;;;;;3.25;1.75;;;;;12.54;100.00;101172.13;4807509;29;45334;-91
2023/01/06 16:16:27;;;;;;;;;1.00;1.00;;;;;12.54;100.00;101185.38;4818378;29;45525;-91
2023/01/06 16:19:31;;;;;;;;;2.75;1.50;;;;;11.01;100.00;100931.13;4828000;29;45392;-95
2023/01/06 16:22:06;;;;;;;;;3.00;3.00;;;;;12.50;100.00;101184.56;4798560;29;45423;-90
2023/01/06 16:24:32;;;;;;;;;1.00;1.00;;;;;11.12;100.00;100950.31;4794632;29;45415;-88
2023/01/06 16:27:05;;;;;;;;;1.75;1.75;;;;;12.07;100.00;101105.81;4780011;29;47233;-92
2023/01/06 16:29:39;;;;;;;;;3.00;3.00;;;;;11.77;100.00;101073.66;4794278;29;45580;-90
2023/01/06 16:32:45;;;;;;;;;1.75;1.75;;;;;11.37;100.00;101010.75;4805508;29;45429;-89
2023/01/06 16:35:34;;;;;;;;;3.00;3.00;;;;;11.91;100.00;101089.31;4800518;29;45387;-91
2023/01/06 16:38:00;;;;;;;;;3.00;3.00;;;;;12.08;100.00;101124.34;4774861;29;47486;-91
2023/01/06 16:40:29;;;;;;;;;4.75;3.75;;;;;12.38;100.00;101175.06;4792355;29;45414;-91
2023/01/06 16:43:07;;;;;;;;;4.00;2.75;;;;;11.47;100.00;101030.91;4774543;29;45343;-90
2023/01/06 16:45:34;;;;;;;;;2.75;2.75;;;;;11.94;100.00;101094.59;4789674;29;45325;-90
2023/01/06 16:48:03;;;;;;;;;4.00;4.00;;;;;11.58;100.00;101061.63;4789703;29;46126;-90
2023/01/06 16:51:04;;;;;;;;;3.50;3.50;;;;;12.28;100.00;101157.56;4775238;29;45557;-90
2023/01/06 16:53:42;;;;;;;;;;;;;;;;;;;;;
2023/01/06 16:56:23;;;;;;;;;4.00;4.00;;;;;10.36;100.00;100842.22;4776938;29;69995;-91
2023/01/06 16:58:55;;;;;;;;;3.75;3.75;;;;;11.55;100.00;101044.91;4794359;29;48454;-91
2023/01/06 17:01:30;;;;;;;;;3.50;3.50;;;;;11.81;100.00;101083.31;4793987;29;45414;-91
2023/01/06 17:04:02;;;;;;;;;3.25;3.25;;;;;10.88;100.00;100938.34;4797003;29;45485;-91
2023/01/06 17:06:30;;;;;;;;;2.75;2.75;;;;;10.32;100.00;100856.31;4809766;29;45504;-91